N312CL KOSH-KFXE
Flight info
| Callsign | N312CL |
|---|---|
| Flight time | N/A |
| Altitude | 39000 |
| Route | CORIR BAE IIU KENLL CPTAN3 |
| Aircraft | LJ35/M-SGHRWXY/SB1 |
Departure
| Time | 2026-04-20 20:13 |
|---|---|
| Airport | Wittman Regional Airport (KOSH) |
Arrival
| Time | N/A |
|---|---|
| Airport | Fort Lauderdale Executive Airport (KFXE) |
| Time | Latitude | Longitude | Altitude | Speed | Heading |
|---|---|---|---|---|---|
| 2026-04-20 19:41 | 43.99456 | -88.55471 | 776 ft | 0 kts | 94° |
| 2026-04-20 20:05 | 43.99456 | -88.55470 | 776 ft | 1 kts | 95° |
| 2026-04-20 20:05 | 43.99455 | -88.55458 | 804 ft | 3 kts | 98° |
| 2026-04-20 20:06 | 43.99448 | -88.55422 | 766 ft | 0 kts | 112° |
| 2026-04-20 20:07 | 43.99444 | -88.55416 | 776 ft | 3 kts | 148° |
| 2026-04-20 20:07 | 43.99405 | -88.55421 | 776 ft | 8 kts | 188° |
| 2026-04-20 20:07 | 43.99335 | -88.55425 | 777 ft | 12 kts | 180° |
| 2026-04-20 20:07 | 43.99238 | -88.55427 | 778 ft | 15 kts | 179° |
| 2026-04-20 20:08 | 43.99138 | -88.55427 | 782 ft | 15 kts | 181° |
| 2026-04-20 20:08 | 43.99010 | -88.55429 | 780 ft | 20 kts | 181° |
| 2026-04-20 20:08 | 43.98866 | -88.55434 | 779 ft | 23 kts | 184° |
| 2026-04-20 20:08 | 43.98734 | -88.55452 | 777 ft | 14 kts | 199° |
| 2026-04-20 20:09 | 43.98675 | -88.55495 | 777 ft | 5 kts | 211° |
| 2026-04-20 20:09 | 43.98652 | -88.55515 | 777 ft | 5 kts | 211° |
| 2026-04-20 20:09 | 43.98610 | -88.55550 | 778 ft | 8 kts | 209° |
| 2026-04-20 20:09 | 43.98559 | -88.55611 | 779 ft | 11 kts | 236° |
| 2026-04-20 20:10 | 43.98530 | -88.55645 | 779 ft | 0 kts | 173° |
| 2026-04-20 20:12 | 43.98293 | -88.55648 | 778 ft | 93 kts | 180° |
| 2026-04-20 20:13 | 43.95820 | -88.55703 | 2660 ft | 227 kts | 183° |
| 2026-04-20 20:13 | 43.94154 | -88.55585 | 4457 ft | 245 kts | 173° |
| 2026-04-20 20:13 | 43.92606 | -88.54803 | 5861 ft | 240 kts | 158° |
| 2026-04-20 20:13 | 43.91087 | -88.53663 | 6252 ft | 263 kts | 156° |
| 2026-04-20 20:14 | 43.89355 | -88.52664 | 6732 ft | 274 kts | 166° |
| 2026-04-20 20:14 | 43.87484 | -88.52085 | 7386 ft | 278 kts | 174° |
| 2026-04-20 20:14 | 43.85554 | -88.51606 | 8010 ft | 285 kts | 172° |
| 2026-04-20 20:14 | 43.83602 | -88.50990 | 8638 ft | 291 kts | 170° |
| 2026-04-20 20:15 | 43.81611 | -88.50310 | 9222 ft | 297 kts | 170° |
| 2026-04-20 20:15 | 43.79578 | -88.49654 | 9800 ft | 303 kts | 171° |
| 2026-04-20 20:15 | 43.77503 | -88.49004 | 10349 ft | 309 kts | 171° |
| 2026-04-20 20:15 | 43.75391 | -88.48333 | 10884 ft | 313 kts | 171° |
| 2026-04-20 20:16 | 43.73256 | -88.47649 | 11431 ft | 317 kts | 171° |
| 2026-04-20 20:16 | 43.71091 | -88.46959 | 11961 ft | 322 kts | 171° |
| 2026-04-20 20:16 | 43.68890 | -88.46259 | 12484 ft | 326 kts | 171° |
| 2026-04-20 20:16 | 43.66664 | -88.45552 | 13016 ft | 330 kts | 172° |
| 2026-04-20 20:17 | 43.64414 | -88.44837 | 13524 ft | 334 kts | 172° |
| 2026-04-20 20:17 | 43.62134 | -88.44112 | 14028 ft | 338 kts | 172° |
| 2026-04-20 20:17 | 43.59824 | -88.43380 | 14431 ft | 342 kts | 172° |
| 2026-04-20 20:17 | 43.57488 | -88.42639 | 14875 ft | 346 kts | 172° |
| 2026-04-20 20:18 | 43.55130 | -88.41893 | 15291 ft | 349 kts | 172° |
| 2026-04-20 20:18 | 43.52749 | -88.41142 | 15711 ft | 353 kts | 172° |
| 2026-04-20 20:18 | 43.50374 | -88.40387 | 16114 ft | 356 kts | 172° |
| 2026-04-20 20:18 | 43.47956 | -88.39621 | 16526 ft | 359 kts | 172° |
| 2026-04-20 20:19 | 43.45498 | -88.38848 | 16920 ft | 362 kts | 172° |
| 2026-04-20 20:19 | 43.43034 | -88.38088 | 17307 ft | 365 kts | 172° |
| 2026-04-20 20:19 | 43.40541 | -88.37324 | 17675 ft | 368 kts | 172° |
| 2026-04-20 20:19 | 43.38033 | -88.36546 | 18052 ft | 371 kts | 172° |
| 2026-04-20 20:20 | 43.35499 | -88.35760 | 18419 ft | 374 kts | 172° |
| 2026-04-20 20:20 | 43.32950 | -88.34973 | 18765 ft | 377 kts | 172° |
| 2026-04-20 20:20 | 43.30379 | -88.34182 | 19072 ft | 380 kts | 172° |
| 2026-04-20 20:20 | 43.27796 | -88.33386 | 19395 ft | 382 kts | 172° |
| 2026-04-20 20:21 | 43.25194 | -88.32585 | 19727 ft | 384 kts | 172° |
| 2026-04-20 20:21 | 43.22579 | -88.31779 | 20056 ft | 386 kts | 172° |
| 2026-04-20 20:21 | 43.19947 | -88.30970 | 20332 ft | 389 kts | 172° |
| 2026-04-20 20:21 | 43.17294 | -88.30158 | 20623 ft | 391 kts | 172° |
| 2026-04-20 20:22 | 43.14625 | -88.29336 | 21145 ft | 394 kts | 172° |
| 2026-04-20 20:22 | 43.11975 | -88.28486 | 21762 ft | 400 kts | 168° |
| 2026-04-20 20:22 | 43.09345 | -88.27070 | 22337 ft | 408 kts | 159° |
| 2026-04-20 20:22 | 43.06732 | -88.25505 | 22916 ft | 412 kts | 160° |
| 2026-04-20 20:23 | 43.04072 | -88.23972 | 23487 ft | 417 kts | 160° |
| 2026-04-20 20:23 | 43.01390 | -88.22421 | 24026 ft | 421 kts | 160° |
| 2026-04-20 20:23 | 42.98679 | -88.20827 | 24491 ft | 425 kts | 159° |
| 2026-04-20 20:23 | 42.95948 | -88.19221 | 24974 ft | 429 kts | 160° |
| 2026-04-20 20:24 | 42.93193 | -88.17619 | 25454 ft | 433 kts | 160° |
| 2026-04-20 20:24 | 42.90412 | -88.16006 | 25936 ft | 437 kts | 160° |
| 2026-04-20 20:24 | 42.87604 | -88.14371 | 26416 ft | 440 kts | 160° |
| 2026-04-20 20:24 | 42.84771 | -88.12721 | 26890 ft | 444 kts | 160° |
| 2026-04-20 20:25 | 42.81916 | -88.11063 | 27393 ft | 448 kts | 160° |
| 2026-04-20 20:25 | 42.79035 | -88.09393 | 27870 ft | 452 kts | 160° |
| 2026-04-20 20:25 | 42.76133 | -88.07712 | 28355 ft | 457 kts | 160° |
| 2026-04-20 20:25 | 42.73193 | -88.06010 | 28801 ft | 461 kts | 160° |
| 2026-04-20 20:26 | 42.70232 | -88.04296 | 29252 ft | 465 kts | 160° |
| 2026-04-20 20:26 | 42.67243 | -88.02569 | 29699 ft | 468 kts | 160° |
| 2026-04-20 20:26 | 42.64232 | -88.00831 | 30133 ft | 472 kts | 160° |
| 2026-04-20 20:26 | 42.61197 | -87.99082 | 30536 ft | 476 kts | 160° |
| 2026-04-20 20:27 | 42.58143 | -87.97322 | 30900 ft | 478 kts | 160° |
| 2026-04-20 20:27 | 42.55071 | -87.95554 | 31291 ft | 480 kts | 160° |
| 2026-04-20 20:27 | 42.52030 | -87.93807 | 31660 ft | 482 kts | 160° |
| 2026-04-20 20:27 | 42.48929 | -87.92027 | 32030 ft | 485 kts | 160° |
| 2026-04-20 20:28 | 42.46829 | -87.90822 | 32279 ft | 486 kts | 160° |
| 2026-04-20 20:28 | 42.42691 | -87.88452 | 32750 ft | 489 kts | 160° |
| 2026-04-20 20:28 | 42.39552 | -87.86655 | 33092 ft | 491 kts | 160° |
| 2026-04-20 20:28 | 42.36399 | -87.84854 | 33419 ft | 493 kts | 160° |
| 2026-04-20 20:29 | 42.33234 | -87.83047 | 33749 ft | 495 kts | 160° |
| 2026-04-20 20:29 | 42.30058 | -87.81233 | 34078 ft | 497 kts | 160° |
| 2026-04-20 20:29 | 42.26861 | -87.79413 | 34375 ft | 499 kts | 160° |
| 2026-04-20 20:29 | 42.23654 | -87.77589 | 34657 ft | 500 kts | 160° |
| 2026-04-20 20:30 | 42.20443 | -87.75762 | 34940 ft | 501 kts | 160° |
| 2026-04-20 20:30 | 42.17228 | -87.73937 | 35176 ft | 502 kts | 160° |
| 2026-04-20 20:30 | 42.14007 | -87.72111 | 35434 ft | 503 kts | 160° |
| 2026-04-20 20:30 | 42.10781 | -87.70282 | 35727 ft | 504 kts | 160° |
| 2026-04-20 20:31 | 42.07546 | -87.68450 | 35965 ft | 504 kts | 160° |
| 2026-04-20 20:31 | 42.04305 | -87.66619 | 36190 ft | 505 kts | 160° |
| 2026-04-20 20:31 | 42.01060 | -87.64787 | 36389 ft | 506 kts | 160° |
| 2026-04-20 20:31 | 41.97813 | -87.62956 | 36593 ft | 507 kts | 160° |
| 2026-04-20 20:32 | 41.94560 | -87.61122 | 36776 ft | 508 kts | 160° |
| 2026-04-20 20:32 | 41.91300 | -87.59287 | 36962 ft | 508 kts | 160° |
| 2026-04-20 20:32 | 41.88076 | -87.57475 | 37107 ft | 509 kts | 160° |
| 2026-04-20 20:32 | 41.84766 | -87.55616 | 37233 ft | 510 kts | 160° |
| 2026-04-20 20:33 | 41.81537 | -87.53805 | 37336 ft | 510 kts | 160° |
| 2026-04-20 20:33 | 41.78260 | -87.51968 | 37444 ft | 511 kts | 160° |
| 2026-04-20 20:33 | 41.71700 | -87.48299 | 37636 ft | 511 kts | 160° |
| 2026-04-20 20:34 | 41.68416 | -87.46466 | 37738 ft | 511 kts | 160° |
| 2026-04-20 20:34 | 41.65130 | -87.44632 | 37840 ft | 512 kts | 160° |
| 2026-04-20 20:34 | 41.58549 | -87.40966 | 38269 ft | 513 kts | 160° |
| 2026-04-20 20:35 | 41.55246 | -87.39131 | 38580 ft | 514 kts | 160° |
| 2026-04-20 20:35 | 41.51940 | -87.37295 | 38789 ft | 515 kts | 160° |
| 2026-04-20 20:35 | 41.48625 | -87.35455 | 38993 ft | 516 kts | 160° |
| 2026-04-20 20:35 | 41.45309 | -87.33618 | 39126 ft | 517 kts | 160° |
| 2026-04-20 20:36 | 41.38647 | -87.29932 | 39247 ft | 520 kts | 160° |
| 2026-04-20 20:36 | 41.33092 | -87.26865 | 39318 ft | 520 kts | 160° |
| 2026-04-20 20:37 | 41.29815 | -87.25056 | 39309 ft | 500 kts | 160° |
| 2026-04-20 20:37 | 41.26613 | -87.23294 | 39301 ft | 496 kts | 161° |
| 2026-04-20 20:37 | 41.20265 | -87.19811 | 39289 ft | 491 kts | 161° |
| 2026-04-20 20:38 | 41.13971 | -87.16353 | 39280 ft | 487 kts | 161° |
| 2026-04-20 20:38 | 41.07725 | -87.12936 | 39260 ft | 484 kts | 161° |
| 2026-04-20 20:39 | 41.01509 | -87.09539 | 39252 ft | 482 kts | 161° |
| 2026-04-20 20:39 | 40.95320 | -87.06165 | 39242 ft | 480 kts | 161° |
| 2026-04-20 20:40 | 40.89142 | -87.02803 | 39247 ft | 478 kts | 161° |
| 2026-04-20 20:40 | 40.82994 | -86.99464 | 39230 ft | 477 kts | 161° |
| 2026-04-20 20:41 | 40.76854 | -86.96136 | 39228 ft | 476 kts | 161° |
| 2026-04-20 20:41 | 40.70765 | -86.92843 | 39250 ft | 476 kts | 161° |
| 2026-04-20 20:42 | 40.64636 | -86.89535 | 39244 ft | 475 kts | 161° |
| 2026-04-20 20:42 | 40.58510 | -86.86234 | 39243 ft | 475 kts | 161° |
| 2026-04-20 20:43 | 40.52386 | -86.82942 | 39233 ft | 475 kts | 161° |
| 2026-04-20 20:43 | 40.46220 | -86.79635 | 39240 ft | 483 kts | 161° |
| 2026-04-20 20:44 | 40.39947 | -86.76274 | 39235 ft | 490 kts | 161° |
| 2026-04-20 20:44 | 40.33637 | -86.72902 | 39242 ft | 495 kts | 161° |
| 2026-04-20 20:45 | 40.27207 | -86.69474 | 39337 ft | 505 kts | 161° |
| 2026-04-20 20:45 | 40.20621 | -86.65968 | 39351 ft | 513 kts | 161° |
| 2026-04-20 20:46 | 40.14005 | -86.62448 | 39346 ft | 513 kts | 161° |
| 2026-04-20 20:46 | 40.07383 | -86.58943 | 39362 ft | 513 kts | 161° |
| 2026-04-20 20:47 | 40.00754 | -86.55434 | 39357 ft | 514 kts | 161° |
| 2026-04-20 20:47 | 39.94118 | -86.51933 | 39352 ft | 515 kts | 161° |
| 2026-04-20 20:48 | 39.87476 | -86.48434 | 39350 ft | 515 kts | 161° |
| 2026-04-20 20:48 | 39.80860 | -86.44958 | 39350 ft | 515 kts | 161° |
| 2026-04-20 20:49 | 39.74208 | -86.41468 | 39346 ft | 515 kts | 161° |
| 2026-04-20 20:49 | 39.67557 | -86.37988 | 39351 ft | 515 kts | 161° |
| 2026-04-20 20:50 | 39.60899 | -86.34510 | 39352 ft | 515 kts | 161° |
| 2026-04-20 20:50 | 39.54288 | -86.31065 | 39352 ft | 515 kts | 161° |
| 2026-04-20 20:51 | 39.47641 | -86.27607 | 39346 ft | 515 kts | 161° |
| 2026-04-20 20:51 | 39.40989 | -86.24155 | 39347 ft | 515 kts | 161° |
| 2026-04-20 20:52 | 39.34340 | -86.20710 | 39354 ft | 514 kts | 161° |
| 2026-04-20 20:52 | 39.27687 | -86.17271 | 39380 ft | 515 kts | 161° |
| 2026-04-20 20:53 | 39.21032 | -86.13839 | 39377 ft | 515 kts | 161° |
| 2026-04-20 20:53 | 39.14367 | -86.10406 | 39372 ft | 516 kts | 161° |
| 2026-04-20 20:54 | 39.07697 | -86.06981 | 39373 ft | 516 kts | 161° |
| 2026-04-20 20:54 | 39.01032 | -86.03562 | 39355 ft | 515 kts | 161° |
| 2026-04-20 20:55 | 38.94376 | -86.00158 | 39345 ft | 515 kts | 161° |
| 2026-04-20 20:55 | 38.87762 | -85.96779 | 39337 ft | 514 kts | 161° |
| 2026-04-20 20:56 | 38.81109 | -85.93389 | 39327 ft | 514 kts | 161° |
| 2026-04-20 20:56 | 38.74465 | -85.90010 | 39340 ft | 514 kts | 161° |
| 2026-04-20 20:57 | 38.67826 | -85.86640 | 39344 ft | 514 kts | 161° |
| 2026-04-20 20:57 | 38.61175 | -85.83271 | 39336 ft | 514 kts | 161° |
| 2026-04-20 20:58 | 38.54521 | -85.79906 | 39329 ft | 513 kts | 162° |
| 2026-04-20 20:58 | 38.47871 | -85.76553 | 39324 ft | 514 kts | 162° |
| 2026-04-20 20:59 | 38.41225 | -85.73205 | 39321 ft | 514 kts | 162° |
| 2026-04-20 20:59 | 38.34557 | -85.69855 | 39321 ft | 514 kts | 162° |
| 2026-04-20 21:00 | 38.27897 | -85.66513 | 39352 ft | 514 kts | 162° |
| 2026-04-20 21:00 | 38.21287 | -85.63206 | 39353 ft | 514 kts | 162° |
| 2026-04-20 21:01 | 38.14623 | -85.59876 | 39337 ft | 514 kts | 162° |
| 2026-04-20 21:01 | 38.08009 | -85.56401 | 39332 ft | 515 kts | 158° |
| 2026-04-20 21:02 | 38.01504 | -85.52561 | 39336 ft | 515 kts | 158° |
| 2026-04-20 21:02 | 37.94979 | -85.48782 | 39310 ft | 515 kts | 159° |
| 2026-04-20 21:03 | 37.88463 | -85.44977 | 39304 ft | 516 kts | 159° |
| 2026-04-20 21:03 | 37.81948 | -85.41198 | 39316 ft | 516 kts | 159° |
| 2026-04-20 21:04 | 37.75416 | -85.37414 | 39320 ft | 516 kts | 159° |
| 2026-04-20 21:04 | 37.68892 | -85.33638 | 39329 ft | 516 kts | 159° |
| 2026-04-20 21:05 | 37.62352 | -85.29865 | 39360 ft | 516 kts | 159° |
| 2026-04-20 21:05 | 37.55822 | -85.26100 | 39350 ft | 516 kts | 159° |
| 2026-04-20 21:06 | 37.49291 | -85.22347 | 39354 ft | 516 kts | 159° |
| 2026-04-20 21:06 | 37.42751 | -85.18591 | 39356 ft | 516 kts | 159° |
| 2026-04-20 21:07 | 37.36258 | -85.14871 | 39354 ft | 516 kts | 160° |
| 2026-04-20 21:07 | 37.29715 | -85.11132 | 39352 ft | 516 kts | 160° |
| 2026-04-20 21:08 | 37.23169 | -85.07395 | 39333 ft | 517 kts | 160° |
| 2026-04-20 21:08 | 37.16622 | -85.03668 | 39345 ft | 517 kts | 160° |
| 2026-04-20 21:09 | 37.10073 | -84.99941 | 39330 ft | 517 kts | 160° |
| 2026-04-20 21:09 | 37.03515 | -84.96224 | 39332 ft | 517 kts | 160° |
| 2026-04-20 21:10 | 36.96961 | -84.92510 | 39331 ft | 517 kts | 160° |
| 2026-04-20 21:10 | 36.90404 | -84.88805 | 39333 ft | 517 kts | 160° |
| 2026-04-20 21:11 | 36.83851 | -84.85106 | 39333 ft | 517 kts | 161° |
| 2026-04-20 21:11 | 36.77289 | -84.81414 | 39333 ft | 517 kts | 161° |
| 2026-04-20 21:12 | 36.70722 | -84.77720 | 39332 ft | 517 kts | 161° |
| 2026-04-20 21:12 | 36.64196 | -84.74062 | 39327 ft | 518 kts | 160° |
| 2026-04-20 21:13 | 36.57635 | -84.70383 | 39314 ft | 518 kts | 161° |
| 2026-04-20 21:13 | 36.51054 | -84.66711 | 39310 ft | 519 kts | 161° |
| 2026-04-20 21:14 | 36.44472 | -84.63035 | 39302 ft | 518 kts | 161° |
| 2026-04-20 21:14 | 36.37897 | -84.59377 | 39277 ft | 518 kts | 161° |
| 2026-04-20 21:15 | 36.31309 | -84.55713 | 39284 ft | 519 kts | 161° |
| 2026-04-20 21:15 | 36.24719 | -84.52057 | 39299 ft | 518 kts | 160° |
| 2026-04-20 21:16 | 36.18127 | -84.48401 | 39285 ft | 519 kts | 162° |
| 2026-04-20 21:16 | 36.11521 | -84.44764 | 39242 ft | 519 kts | 162° |
| 2026-04-20 21:17 | 36.04921 | -84.41110 | 39265 ft | 521 kts | 162° |
| 2026-04-20 21:17 | 35.98299 | -84.37472 | 39270 ft | 521 kts | 162° |
| 2026-04-20 21:18 | 35.91671 | -84.33826 | 39259 ft | 521 kts | 162° |
| 2026-04-20 21:18 | 35.85047 | -84.30193 | 39256 ft | 521 kts | 162° |
| 2026-04-20 21:19 | 35.78423 | -84.26565 | 39263 ft | 521 kts | 162° |
| 2026-04-20 21:20 | 35.68532 | -84.21162 | 39263 ft | 520 kts | 162° |